createdAt,value
2022-09-30T00:01:16.173Z,12.40
2022-09-30T00:04:01.930Z,12.50
2022-09-30T00:06:48.085Z,12.50
2022-09-30T00:09:33.582Z,12.50
2022-09-30T00:12:19.586Z,12.40
2022-09-30T00:15:05.568Z,12.40
2022-09-30T00:17:50.811Z,12.30
2022-09-30T00:20:36.235Z,12.30
2022-09-30T00:23:23.207Z,12.30
2022-09-30T00:26:12.394Z,12.40
2022-09-30T00:28:59.430Z,12.40
2022-09-30T00:31:44.909Z,12.30
2022-09-30T00:34:30.206Z,12.30
2022-09-30T00:37:16.742Z,12.30
2022-09-30T00:40:02.196Z,12.30
2022-09-30T00:42:47.952Z,12.40
2022-09-30T00:45:33.405Z,12.30
2022-09-30T00:48:39.294Z,12.20
2022-09-30T00:51:35.415Z,12.20
2022-09-30T00:54:24.752Z,12.20
2022-09-30T00:57:09.870Z,12.30
2022-09-30T00:59:55.238Z,12.30
2022-09-30T01:02:40.499Z,12.30
2022-09-30T01:05:26.951Z,12.30
2022-09-30T01:08:12.867Z,12.30
2022-09-30T01:10:58.087Z,12.30
2022-09-30T01:13:46.351Z,12.30
2022-09-30T01:17:20.671Z,12.30
2022-09-30T01:20:35.712Z,12.30
2022-09-30T01:23:37.756Z,12.30
2022-09-30T01:26:37.123Z,12.30
2022-09-30T01:29:48.113Z,12.30
2022-09-30T01:32:50.533Z,12.30
2022-09-30T01:35:51.085Z,12.20
2022-09-30T01:39:04.004Z,12.20
2022-09-30T01:41:55.387Z,12.30
2022-09-30T01:45:13.202Z,12.30
2022-09-30T01:48:14.435Z,12.20
2022-09-30T01:51:07.682Z,12.20
2022-09-30T01:54:07.495Z,12.20
2022-09-30T01:56:58.821Z,12.20
2022-09-30T01:59:49.773Z,12.10
2022-09-30T02:02:59.373Z,12.10
2022-09-30T02:05:57.782Z,12.10
2022-09-30T02:08:57.532Z,12.20
2022-09-30T02:11:43.412Z,12.20
2022-09-30T02:14:44.068Z,12.20
2022-09-30T02:17:40.541Z,12.20
2022-09-30T02:20:29.654Z,12.20
2022-09-30T02:23:28.975Z,12.20
2022-09-30T02:26:17.858Z,12.10
2022-09-30T02:29:07.064Z,12.10
2022-09-30T02:31:56.227Z,12.20
2022-09-30T02:34:56.471Z,12.20
2022-09-30T02:37:48.174Z,12.10
2022-09-30T02:40:48.150Z,12.10
2022-09-30T02:43:34.034Z,12.20
2022-09-30T02:46:25.530Z,12.20
2022-09-30T02:49:29.391Z,12.20
2022-09-30T02:52:27.751Z,12.20
2022-09-30T02:55:19.063Z,12.10
2022-09-30T02:58:16.864Z,12.10
2022-09-30T03:01:02.684Z,12.10
2022-09-30T03:04:00.621Z,12.10
2022-09-30T03:06:45.935Z,12.10
2022-09-30T03:09:31.371Z,12.10
2022-09-30T03:12:31.066Z,12.20
2022-09-30T03:15:30.004Z,12.20
2022-09-30T03:18:30.330Z,12.10
2022-09-30T03:21:18.549Z,12.00
2022-09-30T03:24:24.781Z,12.10
2022-09-30T03:27:33.165Z,12.10
2022-09-30T03:30:24.577Z,12.10
2022-09-30T03:33:37.290Z,12.00
2022-09-30T03:36:45.604Z,12.10
2022-09-30T03:39:53.184Z,12.00
2022-09-30T03:42:47.444Z,12.00
2022-09-30T03:45:42.141Z,12.00
2022-09-30T03:48:29.351Z,12.00
2022-09-30T03:51:16.016Z,12.00
2022-09-30T03:54:01.117Z,12.00
2022-09-30T03:56:46.482Z,11.90
2022-09-30T03:59:31.961Z,11.90
2022-09-30T04:02:17.369Z,11.90
2022-09-30T04:05:02.757Z,12.00
2022-09-30T04:07:48.076Z,11.90
2022-09-30T04:10:33.446Z,11.90
2022-09-30T04:13:18.800Z,11.90
2022-09-30T04:16:06.190Z,11.80
2022-09-30T04:18:51.882Z,11.80
2022-09-30T04:21:37.258Z,11.80
2022-09-30T04:24:23.975Z,11.70
2022-09-30T04:27:09.307Z,11.80
2022-09-30T04:29:54.600Z,11.70
2022-09-30T04:32:45.566Z,11.70
2022-09-30T04:35:31.134Z,11.70
2022-09-30T04:38:16.531Z,11.70
2022-09-30T04:41:05.359Z,11.70
2022-09-30T04:43:50.421Z,11.80
2022-09-30T04:46:37.069Z,11.80
2022-09-30T04:49:24.128Z,11.80
2022-09-30T04:52:09.611Z,11.80
2022-09-30T04:54:54.896Z,11.80
2022-09-30T04:57:43.490Z,11.90
2022-09-30T05:00:28.786Z,12.00
2022-09-30T05:03:14.983Z,12.00
2022-09-30T05:06:00.818Z,12.10
2022-09-30T05:08:46.765Z,12.10
2022-09-30T05:11:32.326Z,12.20
2022-09-30T05:14:17.798Z,12.10
2022-09-30T05:17:02.915Z,12.10
2022-09-30T05:19:48.197Z,12.10
2022-09-30T05:22:33.394Z,12.20
2022-09-30T05:25:18.777Z,12.10
2022-09-30T05:28:04.307Z,12.10
2022-09-30T05:30:54.452Z,12.20
2022-09-30T05:33:41.694Z,12.10
2022-09-30T05:36:26.975Z,12.10
2022-09-30T05:39:12.403Z,12.10
2022-09-30T05:41:58.543Z,12.10
2022-09-30T05:44:43.933Z,12.10
2022-09-30T05:47:29.322Z,12.10
2022-09-30T05:50:14.821Z,12.20
2022-09-30T05:53:00.861Z,12.20
2022-09-30T05:55:47.489Z,12.10
2022-09-30T05:58:32.811Z,12.10
2022-09-30T06:01:17.899Z,12.10
2022-09-30T06:04:03.399Z,12.10
2022-09-30T06:06:48.660Z,12.10
2022-09-30T06:09:34.076Z,12.10
2022-09-30T06:12:19.504Z,12.20
2022-09-30T06:15:05.888Z,12.30
2022-09-30T06:17:54.663Z,12.20
2022-09-30T06:20:40.146Z,12.20
2022-09-30T06:23:26.330Z,12.20
2022-09-30T06:26:12.987Z,12.20
2022-09-30T06:28:58.307Z,12.10
2022-09-30T06:31:43.691Z,12.00
2022-09-30T06:34:29.155Z,12.00
2022-09-30T06:37:16.015Z,12.00
2022-09-30T06:40:01.758Z,12.00
2022-09-30T06:42:48.272Z,12.00
2022-09-30T06:45:35.588Z,12.10
2022-09-30T06:48:33.672Z,12.10
2022-09-30T06:51:22.509Z,11.90
2022-09-30T06:54:08.969Z,11.90
2022-09-30T06:56:57.335Z,11.80
2022-09-30T06:59:45.796Z,11.80
2022-09-30T07:02:31.158Z,11.80
2022-09-30T07:05:17.173Z,11.70
2022-09-30T07:08:02.927Z,11.80
2022-09-30T07:10:48.153Z,11.70
2022-09-30T07:13:33.746Z,11.70
2022-09-30T07:16:21.208Z,11.80
2022-09-30T07:19:10.062Z,11.90
2022-09-30T07:21:55.445Z,11.80
2022-09-30T07:24:40.816Z,11.70
2022-09-30T07:27:27.891Z,11.40
2022-09-30T07:30:22.783Z,11.50
2022-09-30T07:33:16.303Z,11.50
2022-09-30T07:36:03.867Z,11.60
2022-09-30T07:38:51.407Z,11.60
2022-09-30T07:41:39.499Z,11.70
2022-09-30T07:44:26.827Z,11.70
2022-09-30T07:47:12.082Z,11.70
2022-09-30T07:49:57.452Z,11.50
2022-09-30T07:52:42.962Z,11.70
2022-09-30T07:55:28.109Z,11.90
2022-09-30T07:58:13.496Z,12.00
2022-09-30T08:00:59.447Z,12.20
2022-09-30T08:03:45.000Z,12.20
2022-09-30T08:06:31.139Z,12.30
2022-09-30T08:09:19.163Z,12.30
2022-09-30T08:12:05.330Z,12.10
2022-09-30T08:14:50.369Z,12.20
2022-09-30T08:17:35.753Z,12.10
2022-09-30T08:20:22.628Z,12.30
2022-09-30T08:23:08.040Z,12.40
2022-09-30T08:25:59.847Z,12.70
2022-09-30T08:28:48.826Z,12.70
2022-09-30T08:31:34.117Z,12.90
2022-09-30T08:34:19.761Z,13.00
2022-09-30T08:37:09.066Z,13.20
2022-09-30T08:39:55.122Z,13.30
2022-09-30T08:42:57.529Z,13.40
2022-09-30T08:46:00.019Z,13.50
2022-09-30T08:49:25.943Z,13.50
2022-09-30T08:52:37.322Z,13.50
2022-09-30T08:55:39.847Z,13.60
2022-09-30T08:58:38.729Z,13.70
2022-09-30T09:01:38.153Z,13.70
2022-09-30T09:04:23.553Z,13.70
2022-09-30T09:07:41.094Z,14.00
2022-09-30T09:10:27.605Z,14.20
2022-09-30T09:13:25.726Z,14.20
2022-09-30T09:16:29.319Z,14.30
2022-09-30T09:19:23.346Z,14.40
2022-09-30T09:22:10.911Z,14.70
2022-09-30T09:24:56.800Z,14.90
2022-09-30T09:27:49.940Z,15.20
2022-09-30T09:30:45.215Z,15.20
2022-09-30T09:33:33.457Z,15.20
2022-09-30T09:36:38.387Z,15.40
2022-09-30T09:39:50.890Z,15.70
2022-09-30T09:42:54.431Z,15.90
2022-09-30T09:45:48.373Z,16.20
2022-09-30T09:48:35.438Z,16.20
2022-09-30T09:51:34.517Z,16.40
2022-09-30T09:54:22.150Z,16.30
2022-09-30T09:57:09.420Z,16.00
2022-09-30T10:00:22.572Z,16.10
2022-09-30T10:03:18.290Z,16.30
2022-09-30T10:06:08.580Z,16.60
2022-09-30T10:08:55.937Z,16.50
2022-09-30T10:11:41.417Z,16.40
2022-09-30T10:14:26.787Z,16.30
2022-09-30T10:17:26.708Z,16.40
2022-09-30T10:20:14.952Z,16.80
2022-09-30T10:23:03.043Z,17.10
2022-09-30T10:25:55.957Z,17.50
2022-09-30T10:28:59.648Z,17.50
2022-09-30T10:31:46.252Z,17.80
2022-09-30T10:34:36.220Z,18.10
2022-09-30T10:37:23.587Z,18.30
2022-09-30T10:40:16.493Z,18.30
2022-09-30T10:43:01.702Z,18.20
2022-09-30T10:46:06.981Z,18.00
2022-09-30T10:48:56.205Z,17.90
2022-09-30T10:51:46.105Z,18.40
2022-09-30T10:54:40.542Z,18.70
2022-09-30T10:57:32.011Z,19.10
2022-09-30T11:00:23.715Z,19.30
2022-09-30T11:03:16.942Z,19.40
2022-09-30T11:06:02.150Z,19.50
2022-09-30T11:09:02.074Z,19.80
2022-09-30T11:12:02.786Z,20.10
2022-09-30T11:15:03.302Z,19.70
2022-09-30T11:18:00.706Z,19.90
2022-09-30T11:21:02.173Z,20.30
2022-09-30T11:23:57.115Z,20.30
2022-09-30T11:27:05.869Z,19.90
2022-09-30T11:30:16.318Z,19.90
2022-09-30T11:33:24.853Z,19.50
2022-09-30T11:36:21.236Z,19.00
2022-09-30T11:39:25.199Z,19.00
2022-09-30T11:42:40.577Z,19.10
2022-09-30T11:45:50.353Z,19.10
2022-09-30T11:48:58.135Z,19.30
2022-09-30T11:51:49.536Z,19.50
2022-09-30T11:54:59.420Z,19.60
2022-09-30T11:58:36.088Z,19.80
2022-09-30T12:01:41.364Z,19.90
2022-09-30T12:04:35.468Z,19.50
2022-09-30T12:07:37.498Z,19.40
2022-09-30T12:10:32.727Z,19.60
2022-09-30T12:13:31.777Z,19.60
2022-09-30T12:16:21.227Z,19.40
2022-09-30T12:19:32.753Z,19.30
2022-09-30T12:22:24.090Z,19.10
2022-09-30T12:25:23.923Z,19.00
2022-09-30T12:28:54.368Z,19.10
2022-09-30T12:31:52.410Z,19.00
2022-09-30T12:34:37.623Z,18.70
2022-09-30T12:37:41.303Z,18.60
2022-09-30T12:40:52.435Z,18.70
2022-09-30T12:44:16.657Z,18.50
2022-09-30T12:47:07.815Z,18.50
2022-09-30T12:49:58.039Z,18.50
2022-09-30T12:52:44.385Z,18.50
2022-09-30T12:55:41.273Z,18.40
2022-09-30T12:58:31.632Z,18.30
2022-09-30T13:01:23.402Z,18.30
2022-09-30T13:04:08.725Z,18.40
2022-09-30T13:06:56.881Z,18.50
2022-09-30T13:10:06.747Z,18.50
2022-09-30T13:13:29.077Z,18.60
2022-09-30T13:16:15.053Z,18.50
2022-09-30T13:19:01.547Z,18.40
2022-09-30T13:21:47.340Z,18.20
2022-09-30T13:24:57.881Z,18.10
2022-09-30T13:28:11.124Z,18.00
2022-09-30T13:31:23.663Z,17.90
2022-09-30T13:34:21.274Z,18.10
2022-09-30T13:37:26.818Z,18.10
2022-09-30T13:40:19.223Z,18.10
2022-09-30T13:43:04.513Z,18.30
2022-09-30T13:45:53.456Z,18.40
2022-09-30T13:48:42.551Z,18.30
2022-09-30T13:51:31.892Z,18.30
2022-09-30T13:54:37.427Z,18.40
2022-09-30T13:57:34.827Z,18.50
2022-09-30T14:00:22.353Z,18.50
2022-09-30T14:03:32.585Z,18.70
2022-09-30T14:06:45.385Z,18.60
2022-09-30T14:09:51.796Z,18.70
2022-09-30T14:12:54.011Z,18.50
2022-09-30T14:16:16.188Z,18.30
2022-09-30T14:19:16.594Z,18.30
2022-09-30T14:22:08.723Z,18.50
2022-09-30T14:24:53.907Z,18.40
2022-09-30T14:27:52.303Z,18.50
2022-09-30T14:31:03.597Z,18.70
2022-09-30T14:33:50.423Z,19.00
2022-09-30T14:36:35.674Z,19.30
2022-09-30T14:39:26.071Z,19.40
2022-09-30T14:42:19.339Z,19.70
2022-09-30T14:45:06.300Z,19.90
2022-09-30T14:47:53.107Z,20.20
2022-09-30T14:50:47.267Z,20.40
2022-09-30T14:53:39.727Z,20.80
2022-09-30T14:56:35.398Z,21.20
2022-09-30T14:59:34.736Z,21.00
2022-09-30T15:02:20.859Z,20.90
2022-09-30T15:05:06.083Z,20.80
2022-09-30T15:07:51.455Z,20.70
2022-09-30T15:10:37.128Z,20.90
2022-09-30T15:13:25.219Z,21.10
2022-09-30T15:16:32.102Z,20.60
2022-09-30T15:19:19.361Z,20.30
2022-09-30T15:22:07.031Z,20.00
2022-09-30T15:24:53.719Z,19.50
2022-09-30T15:27:38.806Z,19.40
2022-09-30T15:30:29.107Z,19.10
2022-09-30T15:33:18.202Z,18.90
2022-09-30T15:36:24.092Z,18.70
2022-09-30T15:39:21.216Z,18.80
2022-09-30T15:42:06.587Z,19.00
2022-09-30T15:44:52.124Z,19.10
2022-09-30T15:47:54.433Z,19.40
2022-09-30T15:50:48.952Z,19.70
2022-09-30T15:53:37.328Z,19.80
2022-09-30T15:56:30.782Z,19.90
2022-09-30T15:59:16.418Z,20.00
2022-09-30T16:02:02.108Z,20.00
2022-09-30T16:04:53.998Z,19.80
2022-09-30T16:07:42.183Z,19.60
2022-09-30T16:10:29.059Z,19.50
2022-09-30T16:13:15.559Z,19.30
2022-09-30T16:16:02.153Z,19.40
2022-09-30T16:18:48.232Z,19.30
2022-09-30T16:21:50.955Z,19.20
2022-09-30T16:24:36.315Z,19.20
2022-09-30T16:27:29.815Z,19.20
2022-09-30T16:30:17.842Z,19.20
2022-09-30T16:33:06.072Z,18.90
2022-09-30T16:35:51.506Z,18.90
2022-09-30T16:38:37.181Z,18.80
2022-09-30T16:41:22.336Z,18.70
2022-09-30T16:44:07.858Z,18.70
2022-09-30T16:46:53.136Z,18.60
2022-09-30T16:49:38.774Z,18.50
2022-09-30T16:52:24.724Z,18.30
2022-09-30T16:55:10.090Z,18.20
2022-09-30T16:57:59.428Z,18.10
2022-09-30T17:00:45.275Z,17.90
2022-09-30T17:03:30.934Z,17.80
2022-09-30T17:06:18.900Z,17.70
2022-09-30T17:09:05.361Z,17.60
2022-09-30T17:11:53.176Z,17.40
2022-09-30T17:14:39.248Z,17.30
2022-09-30T17:17:24.779Z,17.20
2022-09-30T17:20:10.491Z,17.10
2022-09-30T17:22:55.876Z,17.00
2022-09-30T17:25:42.411Z,17.00
2022-09-30T17:28:27.729Z,16.80
2022-09-30T17:31:13.298Z,16.70
2022-09-30T17:33:58.688Z,16.70
2022-09-30T17:36:44.071Z,16.70
2022-09-30T17:39:29.284Z,16.60
2022-09-30T17:42:34.248Z,16.50
2022-09-30T17:45:19.912Z,16.40
2022-09-30T17:48:07.751Z,16.20
2022-09-30T17:50:54.714Z,16.10
2022-09-30T17:53:40.179Z,16.00
2022-09-30T17:56:25.431Z,15.90
2022-09-30T17:59:10.918Z,15.80
2022-09-30T18:01:56.609Z,15.70
2022-09-30T18:04:41.979Z,15.60
2022-09-30T18:07:27.908Z,15.50
2022-09-30T18:10:13.576Z,15.40
2022-09-30T18:12:59.629Z,15.30
2022-09-30T18:15:45.406Z,15.30
2022-09-30T18:18:30.658Z,15.20
2022-09-30T18:21:16.291Z,15.20
2022-09-30T18:24:02.659Z,15.10
2022-09-30T18:26:48.264Z,15.10
2022-09-30T18:29:33.658Z,15.10
2022-09-30T18:32:19.415Z,15.10
2022-09-30T18:35:12.171Z,15.00
2022-09-30T18:37:57.313Z,15.00
2022-09-30T18:40:43.709Z,14.90
2022-09-30T18:43:28.882Z,14.90
2022-09-30T18:46:16.004Z,14.80
2022-09-30T18:49:01.949Z,14.90
2022-09-30T18:51:48.560Z,14.90
2022-09-30T18:54:33.919Z,14.80
2022-09-30T18:57:19.019Z,14.70
2022-09-30T19:00:06.199Z,14.60
2022-09-30T19:02:52.402Z,14.50
2022-09-30T19:05:37.923Z,14.50
2022-09-30T19:08:24.556Z,14.40
2022-09-30T19:11:14.597Z,14.30
2022-09-30T19:14:02.482Z,14.30
2022-09-30T19:16:48.003Z,14.20
2022-09-30T19:19:38.931Z,14.20
2022-09-30T19:22:24.928Z,14.20
2022-09-30T19:25:16.568Z,14.10
2022-09-30T19:28:02.473Z,14.10
2022-09-30T19:30:48.348Z,14.00
2022-09-30T19:33:40.625Z,14.00
2022-09-30T19:36:39.863Z,13.90
2022-09-30T19:39:39.718Z,13.80
2022-09-30T19:42:29.739Z,13.80
2022-09-30T19:45:16.758Z,13.80
2022-09-30T19:48:03.173Z,13.70
2022-09-30T19:50:49.115Z,13.70
2022-09-30T19:53:41.461Z,13.60
2022-09-30T19:56:27.573Z,13.60
2022-09-30T19:59:12.974Z,13.50
2022-09-30T20:01:58.717Z,13.40
2022-09-30T20:04:45.456Z,13.40
2022-09-30T20:07:30.720Z,13.40
2022-09-30T20:10:16.280Z,13.40
2022-09-30T20:13:02.884Z,13.40
2022-09-30T20:15:50.832Z,13.30
2022-09-30T20:18:36.879Z,13.30
2022-09-30T20:21:22.297Z,13.20
2022-09-30T20:24:12.986Z,13.10
2022-09-30T20:26:58.244Z,13.00
2022-09-30T20:29:43.585Z,12.90
2022-09-30T20:32:30.748Z,12.90
2022-09-30T20:35:16.223Z,13.00
2022-09-30T20:38:01.574Z,13.00
2022-09-30T20:40:47.067Z,13.10
2022-09-30T20:43:33.376Z,13.00
2022-09-30T20:46:19.296Z,13.00
2022-09-30T20:49:04.759Z,13.00
2022-09-30T20:51:49.989Z,12.90
2022-09-30T20:54:35.872Z,12.90
2022-09-30T20:57:21.272Z,12.90
2022-09-30T21:00:07.523Z,12.90
2022-09-30T21:02:52.634Z,12.70
2022-09-30T21:05:38.674Z,12.70
2022-09-30T21:08:24.383Z,12.60
2022-09-30T21:11:10.890Z,12.60
2022-09-30T21:13:56.080Z,12.60
2022-09-30T21:16:42.398Z,12.60
2022-09-30T21:19:27.819Z,12.50
2022-09-30T21:22:13.213Z,12.40
2022-09-30T21:24:58.523Z,12.40
2022-09-30T21:27:47.851Z,12.40
2022-09-30T21:30:32.954Z,12.30
2022-09-30T21:33:19.108Z,12.30
2022-09-30T21:36:06.119Z,12.30
2022-09-30T21:38:51.990Z,12.30
2022-09-30T21:41:37.855Z,12.30
2022-09-30T21:44:23.247Z,12.30
2022-09-30T21:47:08.375Z,12.30
2022-09-30T21:49:53.754Z,12.30
2022-09-30T21:52:39.373Z,12.20
2022-09-30T21:55:24.735Z,12.20
2022-09-30T21:58:10.135Z,12.20
2022-09-30T22:01:01.056Z,12.20
2022-09-30T22:03:46.248Z,12.20
2022-09-30T22:06:32.223Z,12.20
2022-09-30T22:09:17.513Z,12.20
2022-09-30T22:12:08.544Z,12.10
2022-09-30T22:14:54.023Z,12.00
2022-09-30T22:17:39.526Z,12.00
2022-09-30T22:20:24.825Z,12.00
2022-09-30T22:23:10.542Z,12.00
2022-09-30T22:25:58.756Z,12.00
2022-09-30T22:28:45.400Z,12.00
2022-09-30T22:31:32.492Z,11.90
2022-09-30T22:34:36.732Z,11.80
2022-09-30T22:37:40.656Z,11.90
2022-09-30T22:40:26.584Z,11.90
2022-09-30T22:43:12.158Z,11.80
2022-09-30T22:46:08.388Z,11.70
2022-09-30T22:48:53.805Z,11.70
2022-09-30T22:51:39.331Z,11.70
2022-09-30T22:54:26.113Z,11.60
2022-09-30T22:57:12.297Z,11.60
2022-09-30T22:59:59.695Z,11.50
2022-09-30T23:02:45.113Z,11.40
2022-09-30T23:05:31.330Z,11.50
2022-09-30T23:08:16.560Z,11.40
2022-09-30T23:11:02.089Z,11.50
2022-09-30T23:13:47.165Z,11.40
2022-09-30T23:16:32.683Z,11.40
2022-09-30T23:19:18.922Z,11.30
2022-09-30T23:22:05.039Z,11.30
2022-09-30T23:24:50.621Z,11.30
2022-09-30T23:27:36.370Z,11.30
2022-09-30T23:30:21.864Z,11.30
2022-09-30T23:33:09.569Z,11.30
2022-09-30T23:35:59.866Z,11.20
2022-09-30T23:38:45.806Z,11.20
2022-09-30T23:41:32.712Z,11.10
2022-09-30T23:44:18.779Z,11.10
2022-09-30T23:47:19.035Z,11.10
2022-09-30T23:50:04.346Z,11.20
2022-09-30T23:52:50.004Z,11.20
2022-09-30T23:55:35.278Z,11.10
2022-09-30T23:58:20.947Z,11.10
